Stephanie Dann — WCD9870 — position and weather

sailwx.info

Track history (hours):
 
Tides and Currents Weather Stations Pressure Air Temp Water Temp Dewpoint Dewpoint Depression Visibility Wind Speed Wind Dir Waves Ship Positions

Stephanie Dann

Owner: DANN TOWING CO, TAMPA, FL. More information available from US FCC via Universal Licensing System and Coast Guard Vessel Documentation Center.

Last reported at 2018-Jun-25 15:22 UTC. Time now 2018-Jun-25 15:57 UTC.
Position N 32°50' W 079°57'.

Length 28 m; draft 3.3 m.

Type: Towing. MMSI: 338871000.

Date/timePositionNaut miles runAvg speedWind from/ knotsBaromVisibWave heightAir tempDewpointWater temp
2018-Jun-25 15:22N 32°50' W 079°57'0 0.0
2018-Jun-25 15:00N 32°50' W 079°57'0 0.0
2018-Jun-25 14:29N 32°50' W 079°57'0 0.0
2018-Jun-25 12:28N 32°50' W 079°57'0 0.0
2018-Jun-25 11:49N 32°50' W 079°57'0 0.0
2018-Jun-25 11:20N 32°50' W 079°57'0 0.0
2018-Jun-25 09:43N 32°50' W 079°57'0 0.0
2018-Jun-25 09:24N 32°50' W 079°57'0 0.0
2018-Jun-25 07:08N 32°50' W 079°57'0 0.0
2018-Jun-25 06:19N 32°50' W 079°57'0 0.0
2018-Jun-25 05:49N 32°50' W 079°57'0 0.0
2018-Jun-25 05:31N 32°50' W 079°57'0 0.0
2018-Jun-25 04:20N 32°50' W 079°57'0 0.0
2018-Jun-25 03:52N 32°50' W 079°57'1 1.6
2018-Jun-25 03:30N 32°50' W 079°56'0 0.0
2018-Jun-25 02:33N 32°50' W 079°56'1 0.1
2018-Jun-24 17:35N 32°50' W 079°57'0 0.0
2018-Jun-24 16:55N 32°50' W 079°57'0 0.0
2018-Jun-24 16:16N 32°50' W 079°57'0 0.0
2018-Jun-24 15:57N 32°50' W 079°57'0 0.0
2018-Jun-24 15:28N 32°50' W 079°57'0 0.0
2018-Jun-24 15:00N 32°50' W 079°57'0 0.0
2018-Jun-24 14:27N 32°50' W 079°57'0 0.0
2018-Jun-24 13:59N 32°50' W 079°57'0 0.0
2018-Jun-24 13:29N 32°50' W 079°57'0 0.0
2018-Jun-24 13:00N 32°50' W 079°57'0 0.0
2018-Jun-24 12:25N 32°50' W 079°57'0 0.0
2018-Jun-24 12:01N 32°50' W 079°57'0 0.0
2018-Jun-24 05:33N 32°50' W 079°57'0 0.0
2018-Jun-24 05:30N 32°50' W 079°57'0 0.0
2018-Jun-24 04:57N 32°50' W 079°57'0 0.0
2018-Jun-24 04:30N 32°50' W 079°57'0 0.0
2018-Jun-24 04:00N 32°50' W 079°57'0 0.0
2018-Jun-24 01:43N 32°50' W 079°57'0 0.0
2018-Jun-23 21:43N 32°50' W 079°57'2 1.6
2018-Jun-23 20:12N 32°48' W 079°55'2 9.8
2018-Jun-23 20:00N 32°46' W 079°55'1 1.8
2018-Jun-23 19:28N 32°46' W 079°54'0 0.9
2018-Jun-23 19:00N 32°45' W 079°55'0 0.0
2018-Jun-23 18:30N 32°45' W 079°55'0 0.0
2018-Jun-23 17:57N 32°45' W 079°55'1 3.2
2018-Jun-23 17:30N 32°47' W 079°55'3 0.8
2018-Jun-23 13:09N 32°50' W 079°57'1 0.5
2018-Jun-23 11:05N 32°49' W 079°56'1 8.1
2018-Jun-23 11:00N 32°49' W 079°56'  
Track history (hours):
 
Tides and Currents Weather Stations Pressure Air Temp Water Temp Dewpoint Dewpoint Depression Visibility Wind Speed Wind Dir Waves Ship Positions

Stephanie Dann

Owner: DANN TOWING CO, TAMPA, FL. More information available from US FCC via Universal Licensing System and Coast Guard Vessel Documentation Center.

Last reported at 2018-Jun-25 15:22 UTC. Time now 2018-Jun-25 15:57 UTC.
Position N 32°50' W 079°57'.

Length 28 m; draft 3.3 m.

Type: Towing. MMSI: 338871000.

Date/timePositionNaut miles runAvg speedWind from/ knotsBaromVisibWave heightAir tempDewpointWater temp
2018-Jun-25 15:22N 32°50' W 079°57'0 0.0
2018-Jun-25 15:00N 32°50' W 079°57'0 0.0
2018-Jun-25 14:29N 32°50' W 079°57'0 0.0
2018-Jun-25 12:28N 32°50' W 079°57'0 0.0
2018-Jun-25 11:49N 32°50' W 079°57'0 0.0
2018-Jun-25 11:20N 32°50' W 079°57'0 0.0
2018-Jun-25 09:43N 32°50' W 079°57'0 0.0
2018-Jun-25 09:24N 32°50' W 079°57'0 0.0
2018-Jun-25 07:08N 32°50' W 079°57'0 0.0
2018-Jun-25 06:19N 32°50' W 079°57'0 0.0
2018-Jun-25 05:49N 32°50' W 079°57'0 0.0
2018-Jun-25 05:31N 32°50' W 079°57'0 0.0
2018-Jun-25 04:20N 32°50' W 079°57'0 0.0
2018-Jun-25 03:52N 32°50' W 079°57'1 1.6
2018-Jun-25 03:30N 32°50' W 079°56'0 0.0
2018-Jun-25 02:33N 32°50' W 079°56'1 0.1
2018-Jun-24 17:35N 32°50' W 079°57'0 0.0
2018-Jun-24 16:55N 32°50' W 079°57'0 0.0
2018-Jun-24 16:16N 32°50' W 079°57'0 0.0
2018-Jun-24 15:57N 32°50' W 079°57'0 0.0
2018-Jun-24 15:28N 32°50' W 079°57'0 0.0
2018-Jun-24 15:00N 32°50' W 079°57'0 0.0
2018-Jun-24 14:27N 32°50' W 079°57'0 0.0
2018-Jun-24 13:59N 32°50' W 079°57'0 0.0
2018-Jun-24 13:29N 32°50' W 079°57'0 0.0
2018-Jun-24 13:00N 32°50' W 079°57'0 0.0
2018-Jun-24 12:25N 32°50' W 079°57'0 0.0
2018-Jun-24 12:01N 32°50' W 079°57'0 0.0
2018-Jun-24 05:33N 32°50' W 079°57'0 0.0
2018-Jun-24 05:30N 32°50' W 079°57'0 0.0
2018-Jun-24 04:57N 32°50' W 079°57'0 0.0
2018-Jun-24 04:30N 32°50' W 079°57'0 0.0
2018-Jun-24 04:00N 32°50' W 079°57'0 0.0
2018-Jun-24 01:43N 32°50' W 079°57'0 0.0
2018-Jun-23 21:43N 32°50' W 079°57'2 1.6
2018-Jun-23 20:12N 32°48' W 079°55'2 9.8
2018-Jun-23 20:00N 32°46' W 079°55'1 1.8
2018-Jun-23 19:28N 32°46' W 079°54'0 0.9
2018-Jun-23 19:00N 32°45' W 079°55'0 0.0
2018-Jun-23 18:30N 32°45' W 079°55'0 0.0
2018-Jun-23 17:57N 32°45' W 079°55'1 3.2
2018-Jun-23 17:30N 32°47' W 079°55'3 0.8
2018-Jun-23 13:09N 32°50' W 079°57'1 0.5
2018-Jun-23 11:05N 32°49' W 079°56'1 8.1
2018-Jun-23 11:00N 32°49' W 079°56'  

Dump ship's entire track history